createdAt,value
2023-05-05T00:00:38.766Z,4.30
2023-05-05T00:03:09.382Z,4.50
2023-05-05T00:05:39.846Z,4.70
2023-05-05T00:08:10.470Z,4.50
2023-05-05T00:10:41.612Z,4.50
2023-05-05T00:15:42.771Z,4.30
2023-05-05T00:18:14.466Z,4.70
2023-05-05T00:20:44.863Z,5.00
2023-05-05T00:23:15.908Z,4.70
2023-05-05T00:28:25.541Z,4.10
2023-05-05T00:31:17.808Z,4.40
2023-05-05T00:33:48.528Z,4.50
2023-05-05T00:36:21.565Z,4.80
2023-05-05T00:38:52.126Z,4.70
2023-05-05T00:41:22.506Z,4.50
2023-05-05T00:43:55.785Z,4.60
2023-05-05T00:46:27.921Z,4.70
2023-05-05T00:48:59.809Z,4.70
2023-05-05T00:51:32.047Z,4.70
2023-05-05T00:54:03.176Z,5.00
2023-05-05T00:56:34.330Z,4.50
2023-05-05T00:59:07.734Z,4.80
2023-05-05T01:01:38.309Z,4.60
2023-05-05T01:04:09.329Z,5.10
2023-05-05T01:06:49.593Z,5.10
2023-05-05T01:09:32.637Z,4.90
2023-05-05T01:12:16.807Z,4.90
2023-05-05T01:14:54.502Z,4.70
2023-05-05T01:17:34.716Z,4.60
2023-05-05T01:20:18.028Z,5.20
2023-05-05T01:22:54.895Z,4.90
2023-05-05T01:25:47.202Z,4.70
2023-05-05T01:28:39.296Z,4.80
2023-05-05T01:31:37.098Z,4.80
2023-05-05T01:34:11.147Z,5.60
2023-05-05T01:36:57.937Z,4.80
2023-05-05T01:39:32.574Z,5.00
2023-05-05T01:42:09.294Z,4.80
2023-05-05T01:44:42.861Z,4.80
2023-05-05T01:47:16.140Z,4.90
2023-05-05T01:49:58.408Z,4.50
2023-05-05T01:52:32.680Z,4.80
2023-05-05T01:55:05.572Z,5.50
2023-05-05T01:57:40.705Z,4.50
2023-05-05T02:00:13.793Z,4.80
2023-05-05T02:02:51.693Z,5.20
2023-05-05T02:05:26.598Z,5.40
2023-05-05T02:08:00.581Z,4.80
2023-05-05T02:10:31.930Z,4.90
2023-05-05T02:13:15.526Z,5.40
2023-05-05T02:16:09.144Z,4.40
2023-05-05T02:18:43.577Z,5.10
2023-05-05T02:21:17.715Z,5.50
2023-05-05T02:23:51.740Z,4.80
2023-05-05T02:26:29.188Z,5.00
2023-05-05T02:29:07.374Z,5.60
2023-05-05T02:31:47.666Z,5.20
2023-05-05T02:34:26.857Z,5.80
2023-05-05T02:37:04.330Z,4.90
2023-05-05T02:39:43.706Z,5.40
2023-05-05T02:42:21.190Z,5.60
2023-05-05T02:44:58.074Z,5.40
2023-05-05T02:47:37.266Z,5.60
2023-05-05T02:50:12.465Z,5.40
2023-05-05T02:52:57.234Z,6.20
2023-05-05T02:58:06.744Z,5.10
2023-05-05T03:00:48.516Z,5.40
2023-05-05T03:03:31.789Z,5.60
2023-05-05T03:06:17.163Z,5.80
2023-05-05T03:09:13.165Z,6.00
2023-05-05T03:11:51.903Z,5.50
2023-05-05T03:14:28.233Z,5.70
2023-05-05T03:17:21.877Z,5.10
2023-05-05T03:19:53.274Z,5.00
2023-05-05T03:22:28.235Z,5.00
2023-05-05T03:25:00.821Z,5.10
2023-05-05T03:27:32.333Z,5.30
2023-05-05T03:30:05.939Z,5.00
2023-05-05T03:32:48.591Z,6.20
2023-05-05T03:35:30.546Z,5.60
2023-05-05T03:38:01.586Z,5.60
2023-05-05T03:40:43.466Z,5.50
2023-05-05T03:43:23.307Z,5.50
2023-05-05T03:46:07.111Z,5.50
2023-05-05T03:48:41.737Z,6.00
2023-05-05T03:51:13.272Z,6.00
2023-05-05T03:53:54.116Z,5.70
2023-05-05T03:56:25.849Z,5.30
2023-05-05T03:58:56.536Z,5.80
2023-05-05T04:04:00.816Z,5.50
2023-05-05T04:06:36.698Z,5.50
2023-05-05T04:09:07.382Z,5.60
2023-05-05T04:11:39.427Z,5.90
2023-05-05T04:14:10.816Z,6.30
2023-05-05T04:16:43.559Z,5.70
2023-05-05T04:19:25.285Z,5.70
2023-05-05T04:22:05.859Z,5.30
2023-05-05T04:24:37.238Z,5.80
2023-05-05T04:29:48.830Z,6.00
2023-05-05T04:32:22.391Z,5.70
2023-05-05T04:35:02.101Z,5.40
2023-05-05T04:37:33.084Z,6.00
2023-05-05T04:40:03.975Z,5.90
2023-05-05T04:42:54.643Z,6.10
2023-05-05T04:45:25.446Z,6.00
2023-05-05T04:48:16.039Z,5.90
2023-05-05T04:50:49.237Z,6.20
2023-05-05T04:53:39.816Z,5.70
2023-05-05T04:58:40.399Z,5.70
2023-05-05T05:01:23.776Z,5.90
2023-05-05T05:03:54.548Z,6.40
2023-05-05T05:06:25.142Z,6.00
2023-05-05T05:09:06.091Z,6.20
2023-05-05T05:11:39.597Z,6.20
2023-05-05T05:14:12.646Z,6.40
2023-05-05T05:16:43.373Z,7.30
2023-05-05T05:19:34.158Z,6.40
2023-05-05T05:22:07.307Z,6.20
2023-05-05T05:24:39.924Z,6.40
2023-05-05T05:27:11.532Z,6.30
2023-05-05T05:29:47.466Z,6.00
2023-05-05T05:32:18.799Z,6.20
2023-05-05T05:34:52.116Z,6.00
2023-05-05T05:37:22.819Z,6.20
2023-05-05T05:40:14.567Z,6.00
2023-05-05T05:42:55.195Z,6.00
2023-05-05T05:45:27.535Z,6.20
2023-05-05T05:47:58.283Z,6.00
2023-05-05T05:50:29.299Z,5.90
2023-05-05T05:53:00.148Z,5.60
2023-05-05T05:55:31.287Z,6.10
2023-05-05T05:58:02.091Z,6.70
2023-05-05T06:00:32.646Z,6.80
2023-05-05T06:03:06.242Z,6.20
2023-05-05T06:05:39.193Z,6.40
2023-05-05T06:08:12.801Z,7.10
2023-05-05T06:10:48.271Z,6.00
2023-05-05T06:13:20.557Z,6.80
2023-05-05T06:15:53.343Z,6.30
2023-05-05T06:18:24.006Z,6.40
2023-05-05T06:20:55.313Z,6.60
2023-05-05T06:23:29.136Z,6.20
2023-05-05T06:26:05.139Z,6.60
2023-05-05T06:28:35.512Z,6.40
2023-05-05T06:31:06.326Z,7.20
2023-05-05T06:33:36.999Z,7.10
2023-05-05T06:36:08.220Z,7.10
2023-05-05T06:38:38.634Z,8.00
2023-05-05T06:41:09.124Z,6.80
2023-05-05T06:43:39.575Z,6.50
2023-05-05T06:46:12.552Z,7.70
2023-05-05T06:48:43.020Z,7.00
2023-05-05T06:51:13.458Z,6.60
2023-05-05T06:53:43.903Z,7.40
2023-05-05T06:56:14.276Z,6.40
2023-05-05T06:58:44.777Z,6.80
2023-05-05T07:01:15.299Z,6.70
2023-05-05T07:03:45.876Z,7.70
2023-05-05T07:06:16.477Z,7.60
2023-05-05T07:08:47.322Z,7.00
2023-05-05T07:11:17.743Z,6.70
2023-05-05T07:13:49.312Z,6.90
2023-05-05T07:16:19.729Z,6.80
2023-05-05T07:18:50.195Z,6.10
2023-05-05T07:21:20.516Z,7.40
2023-05-05T07:23:50.841Z,6.50
2023-05-05T07:26:21.386Z,6.10
2023-05-05T07:28:52.135Z,7.00
2023-05-05T07:31:23.294Z,6.80
2023-05-05T07:36:23.098Z,6.40
2023-05-05T07:38:53.626Z,6.90
2023-05-05T07:41:24.023Z,6.80
2023-05-05T07:43:54.626Z,7.40
2023-05-05T07:46:25.152Z,6.30
2023-05-05T07:48:55.568Z,6.90
2023-05-05T07:51:26.518Z,6.80
2023-05-05T07:53:57.707Z,5.80
2023-05-05T07:56:28.240Z,5.90
2023-05-05T07:58:58.741Z,6.10
2023-05-05T08:01:29.103Z,6.40
2023-05-05T08:03:59.776Z,5.80
2023-05-05T08:06:31.690Z,6.10
2023-05-05T08:09:03.418Z,6.50
2023-05-05T08:11:34.015Z,6.70
2023-05-05T08:14:04.512Z,5.90
2023-05-05T08:16:34.984Z,6.00
2023-05-05T08:19:14.610Z,6.20
2023-05-05T08:21:51.796Z,5.90
2023-05-05T08:24:22.168Z,5.90
2023-05-05T08:26:52.535Z,6.80
2023-05-05T08:29:22.952Z,6.60
2023-05-05T08:31:53.378Z,6.40
2023-05-05T08:34:23.902Z,7.50
2023-05-05T08:36:54.355Z,6.60
2023-05-05T08:39:24.897Z,6.40
2023-05-05T08:41:55.268Z,5.60
2023-05-05T08:44:26.829Z,5.10
2023-05-05T08:46:59.251Z,5.40
2023-05-05T08:49:41.033Z,5.00
2023-05-05T08:52:14.805Z,5.90
2023-05-05T08:54:52.423Z,5.50
2023-05-05T08:57:31.024Z,5.60
2023-05-05T09:00:03.204Z,5.20
2023-05-05T09:02:34.168Z,5.20
2023-05-05T09:07:37.390Z,5.80
2023-05-05T09:10:11.515Z,5.30
2023-05-05T09:12:42.650Z,5.60
2023-05-05T09:15:16.389Z,5.90
2023-05-05T09:17:46.772Z,5.10
2023-05-05T09:20:17.462Z,4.60
2023-05-05T09:22:48.883Z,5.00
2023-05-05T09:25:20.190Z,4.00
2023-05-05T09:27:51.948Z,4.30
2023-05-05T09:30:27.563Z,4.50
2023-05-05T09:32:58.447Z,4.40
2023-05-05T09:35:29.549Z,4.00
2023-05-05T09:40:45.256Z,4.50
2023-05-05T09:43:16.267Z,5.30
2023-05-05T09:48:29.537Z,4.50
2023-05-05T09:51:00.809Z,4.10
2023-05-05T09:56:11.013Z,3.60
2023-05-05T09:58:41.758Z,3.60
2023-05-05T10:01:24.473Z,3.50
2023-05-05T10:03:54.870Z,3.30
2023-05-05T10:06:42.683Z,3.80
2023-05-05T10:09:13.187Z,3.00
2023-05-05T10:11:46.131Z,3.30
2023-05-05T10:14:17.983Z,3.00
2023-05-05T10:16:50.928Z,3.10
2023-05-05T10:19:22.885Z,3.20
2023-05-05T10:21:54.512Z,3.60
2023-05-05T10:24:31.658Z,3.00
2023-05-05T10:27:08.053Z,3.40
2023-05-05T10:29:46.832Z,3.40
2023-05-05T10:32:46.561Z,3.70
2023-05-05T10:35:22.190Z,2.80
2023-05-05T10:37:53.433Z,2.70
2023-05-05T10:40:24.591Z,2.40
2023-05-05T10:42:56.951Z,2.30
2023-05-05T10:45:27.826Z,2.40
2023-05-05T10:48:05.281Z,2.40
2023-05-05T10:50:40.384Z,2.30
2023-05-05T10:53:18.208Z,2.30
2023-05-05T10:55:54.280Z,2.70
2023-05-05T10:58:51.246Z,2.30
2023-05-05T11:01:34.670Z,2.40
2023-05-05T11:04:22.691Z,2.50
2023-05-05T11:07:26.025Z,2.50
2023-05-05T11:10:03.663Z,2.80
2023-05-05T11:12:55.123Z,2.30
2023-05-05T11:15:38.794Z,2.30
2023-05-05T11:18:28.734Z,2.30
2023-05-05T11:21:19.379Z,2.30
2023-05-05T11:23:53.719Z,2.80
2023-05-05T11:26:52.932Z,2.50
2023-05-05T11:29:23.389Z,2.40
2023-05-05T11:32:13.801Z,2.40
2023-05-05T11:34:52.442Z,2.30
2023-05-05T11:37:25.616Z,2.30
2023-05-05T11:40:08.667Z,2.00
2023-05-05T11:42:39.559Z,2.40
2023-05-05T11:47:52.095Z,2.00
2023-05-05T11:50:24.701Z,2.10
2023-05-05T11:52:55.258Z,2.20
2023-05-05T11:55:25.957Z,2.20
2023-05-05T11:57:56.392Z,2.30
2023-05-05T12:00:36.646Z,2.40
2023-05-05T12:03:08.769Z,2.40
2023-05-05T12:05:39.382Z,2.40
2023-05-05T12:08:10.524Z,2.30
2023-05-05T12:10:41.063Z,2.50
2023-05-05T12:13:21.462Z,2.60
2023-05-05T12:15:52.202Z,2.50
2023-05-05T12:18:23.203Z,2.80
2023-05-05T12:20:53.840Z,2.60
2023-05-05T12:25:53.613Z,2.70
2023-05-05T12:30:59.859Z,3.00
2023-05-05T12:33:30.411Z,2.40
2023-05-05T12:38:30.030Z,2.80
2023-05-05T12:43:31.747Z,2.70
2023-05-05T12:46:10.161Z,2.20
2023-05-05T12:48:46.411Z,2.80
2023-05-05T12:51:20.997Z,2.70
2023-05-05T12:54:02.967Z,2.40
2023-05-05T12:56:41.527Z,2.40
2023-05-05T12:59:13.355Z,2.40
2023-05-05T13:01:53.359Z,2.60
2023-05-05T13:04:25.710Z,2.60
2023-05-05T13:07:13.015Z,2.50
2023-05-05T13:09:43.686Z,2.40
2023-05-05T13:14:43.859Z,2.40
2023-05-05T13:17:15.318Z,2.40
2023-05-05T13:19:47.087Z,2.60
2023-05-05T13:22:17.917Z,2.30
2023-05-05T13:24:52.261Z,2.20
2023-05-05T13:27:23.761Z,2.80
2023-05-05T13:29:54.454Z,2.70
2023-05-05T13:34:54.362Z,2.10
2023-05-05T13:39:57.167Z,2.40
2023-05-05T13:42:27.744Z,2.60
2023-05-05T13:45:01.393Z,2.50
2023-05-05T13:47:31.809Z,2.50
2023-05-05T13:50:02.407Z,2.30
2023-05-05T13:52:33.181Z,2.40
2023-05-05T13:55:04.505Z,2.60
2023-05-05T13:57:35.396Z,3.20
2023-05-05T14:00:07.754Z,2.80
2023-05-05T14:02:38.161Z,2.60
2023-05-05T14:05:10.969Z,2.40
2023-05-05T14:07:42.401Z,2.20
2023-05-05T14:10:13.693Z,2.40
2023-05-05T14:12:44.449Z,2.20
2023-05-05T14:17:44.259Z,2.60
2023-05-05T14:20:16.082Z,2.30
2023-05-05T14:22:48.733Z,2.90
2023-05-05T14:25:20.046Z,2.60
2023-05-05T14:27:51.034Z,2.60
2023-05-05T14:30:21.586Z,2.30
2023-05-05T14:32:52.287Z,2.30
2023-05-05T14:37:51.780Z,2.30
2023-05-05T14:40:22.466Z,2.30
2023-05-05T14:42:53.172Z,2.20
2023-05-05T14:45:23.754Z,2.20
2023-05-05T14:47:54.529Z,2.20
2023-05-05T14:52:53.991Z,2.60
2023-05-05T14:55:25.214Z,2.50
2023-05-05T14:57:55.847Z,2.50
2023-05-05T15:00:26.904Z,2.20
2023-05-05T15:02:57.888Z,2.40
2023-05-05T15:05:28.548Z,2.20
2023-05-05T15:07:59.060Z,2.60
2023-05-05T15:10:30.039Z,2.10
2023-05-05T15:15:29.903Z,2.00
2023-05-05T15:18:00.709Z,2.60
2023-05-05T15:20:31.760Z,2.70
2023-05-05T15:25:32.217Z,2.20
2023-05-05T15:28:02.925Z,2.40
2023-05-05T15:30:33.608Z,2.50
2023-05-05T15:33:04.645Z,2.40
2023-05-05T15:35:36.330Z,3.10
2023-05-05T15:38:06.803Z,2.60
2023-05-05T15:40:37.720Z,2.60
2023-05-05T15:43:08.659Z,2.50
2023-05-05T15:45:41.106Z,2.40
2023-05-05T15:48:11.537Z,2.60
2023-05-05T15:50:42.117Z,2.30
2023-05-05T15:53:12.506Z,2.40
2023-05-05T15:55:43.118Z,2.70
2023-05-05T15:58:13.728Z,2.80
2023-05-05T16:00:44.165Z,2.90
2023-05-05T16:03:14.781Z,2.80
2023-05-05T16:05:45.540Z,2.50
2023-05-05T16:08:15.977Z,2.40
2023-05-05T16:10:46.398Z,2.40
2023-05-05T16:13:17.032Z,2.40
2023-05-05T16:15:47.570Z,2.40
2023-05-05T16:18:17.956Z,2.10
2023-05-05T16:20:48.415Z,2.30
2023-05-05T16:23:18.788Z,2.20
2023-05-05T16:25:49.107Z,2.50
2023-05-05T16:28:19.744Z,2.70
2023-05-05T16:30:50.327Z,3.00
2023-05-05T16:33:20.697Z,2.80
2023-05-05T16:35:51.158Z,3.30
2023-05-05T16:38:21.614Z,3.40
2023-05-05T16:40:52.280Z,3.40
2023-05-05T16:43:22.746Z,3.30
2023-05-05T16:45:53.295Z,2.50
2023-05-05T16:48:23.691Z,2.90
2023-05-05T16:50:56.384Z,2.90
2023-05-05T16:53:26.978Z,2.50
2023-05-05T16:55:57.541Z,2.40
2023-05-05T16:58:28.221Z,2.30
2023-05-05T17:01:02.775Z,2.40
2023-05-05T17:03:33.302Z,2.40
2023-05-05T17:06:03.776Z,2.60
2023-05-05T17:08:34.460Z,2.70
2023-05-05T17:11:04.906Z,2.80
2023-05-05T17:13:35.728Z,2.40
2023-05-05T17:16:06.530Z,2.70
2023-05-05T17:18:37.155Z,2.70
2023-05-05T17:21:08.292Z,2.80
2023-05-05T17:23:38.817Z,2.50
2023-05-05T17:26:09.277Z,2.70
2023-05-05T17:28:39.631Z,2.70
2023-05-05T17:31:10.272Z,2.70
2023-05-05T17:33:40.892Z,2.60
2023-05-05T17:36:12.088Z,2.40
2023-05-05T17:38:42.451Z,2.60
2023-05-05T17:41:12.887Z,2.30
2023-05-05T17:43:43.372Z,2.70
2023-05-05T17:46:14.043Z,2.50
2023-05-05T17:48:47.318Z,2.90
2023-05-05T17:51:17.734Z,2.60
2023-05-05T17:53:48.190Z,2.60
2023-05-05T17:56:18.820Z,2.90
2023-05-05T17:58:49.371Z,2.80
2023-05-05T18:01:27.243Z,2.70
2023-05-05T18:03:57.890Z,2.70
2023-05-05T18:06:33.971Z,2.70
2023-05-05T18:09:04.640Z,2.60
2023-05-05T18:11:35.369Z,2.80
2023-05-05T18:14:05.708Z,2.80
2023-05-05T18:16:38.559Z,3.10
2023-05-05T18:19:09.146Z,3.00
2023-05-05T18:21:39.524Z,2.90
2023-05-05T18:24:19.390Z,3.00
2023-05-05T18:26:52.556Z,3.00
2023-05-05T18:29:24.157Z,3.30
2023-05-05T18:31:54.913Z,3.40
2023-05-05T18:34:26.219Z,3.40
2023-05-05T18:36:57.063Z,3.60
2023-05-05T18:39:28.174Z,3.20
2023-05-05T18:41:58.709Z,3.30
2023-05-05T18:44:29.480Z,3.10
2023-05-05T18:47:00.225Z,3.40
2023-05-05T18:49:31.679Z,3.20
2023-05-05T18:52:02.190Z,3.50
2023-05-05T18:54:32.638Z,3.50
2023-05-05T18:57:03.657Z,3.60
2023-05-05T18:59:36.639Z,3.70
2023-05-05T19:02:07.964Z,4.60
2023-05-05T19:07:09.180Z,3.80
2023-05-05T19:09:39.742Z,4.20
2023-05-05T19:12:10.349Z,3.70
2023-05-05T19:14:41.098Z,3.80
2023-05-05T19:17:11.649Z,3.60
2023-05-05T19:19:42.089Z,3.80
2023-05-05T19:22:14.928Z,3.70
2023-05-05T19:24:45.515Z,3.60
2023-05-05T19:27:17.081Z,3.60
2023-05-05T19:29:52.003Z,3.70
2023-05-05T19:32:23.074Z,3.30
2023-05-05T19:35:03.781Z,3.90
2023-05-05T19:37:34.135Z,4.30
2023-05-05T19:40:05.395Z,4.40
2023-05-05T19:45:05.283Z,3.60
2023-05-05T19:47:36.340Z,3.80
2023-05-05T19:50:15.978Z,3.30
2023-05-05T19:52:46.528Z,3.50
2023-05-05T19:55:16.934Z,3.50
2023-05-05T19:57:47.426Z,3.60
2023-05-05T20:00:19.531Z,3.50
2023-05-05T20:02:50.221Z,3.40
2023-05-05T20:05:20.825Z,3.40
2023-05-05T20:07:52.831Z,3.80
2023-05-05T20:10:27.122Z,3.50
2023-05-05T20:12:57.657Z,3.80
2023-05-05T20:15:28.385Z,3.80
2023-05-05T20:17:58.796Z,4.10
2023-05-05T20:20:29.247Z,3.80
2023-05-05T20:22:59.757Z,4.10
2023-05-05T20:25:30.627Z,4.20
2023-05-05T20:28:01.201Z,4.30
2023-05-05T20:30:31.667Z,4.10
2023-05-05T20:33:02.081Z,3.40
2023-05-05T20:35:32.726Z,3.80
2023-05-05T20:38:03.647Z,3.50
2023-05-05T20:40:34.240Z,4.50
2023-05-05T20:43:04.846Z,4.00
2023-05-05T20:45:37.907Z,4.60
2023-05-05T20:48:11.145Z,4.30
2023-05-05T20:50:42.474Z,4.20
2023-05-05T20:55:44.268Z,4.50
2023-05-05T20:58:14.957Z,4.20
2023-05-05T21:00:45.644Z,4.10
2023-05-05T21:03:16.296Z,4.50
2023-05-05T21:05:46.715Z,4.20
2023-05-05T21:08:17.259Z,4.60
2023-05-05T21:10:47.871Z,4.60
2023-05-05T21:13:18.461Z,4.40
2023-05-05T21:15:52.055Z,4.80
2023-05-05T21:18:22.488Z,4.80
2023-05-05T21:20:52.977Z,4.60
2023-05-05T21:23:23.402Z,5.80
2023-05-05T21:25:54.110Z,4.80
2023-05-05T21:28:24.699Z,5.40
2023-05-05T21:31:19.894Z,4.80
2023-05-05T21:33:46.342Z,5.00
2023-05-05T21:36:17.750Z,5.30
2023-05-05T21:38:48.165Z,5.80
2023-05-05T21:41:18.726Z,5.20
2023-05-05T21:43:49.280Z,5.30
2023-05-05T21:46:20.489Z,5.90
2023-05-05T21:48:51.024Z,4.80
2023-05-05T21:51:22.528Z,5.00
2023-05-05T21:53:52.959Z,5.40
2023-05-05T21:56:23.545Z,6.10
2023-05-05T21:58:54.028Z,7.10
2023-05-05T22:01:24.414Z,7.10
2023-05-05T22:03:55.278Z,7.40
2023-05-05T22:06:25.952Z,7.00
2023-05-05T22:08:57.474Z,7.30
2023-05-05T22:11:28.217Z,6.40
2023-05-05T22:14:01.819Z,6.40
2023-05-05T22:16:34.824Z,7.10
2023-05-05T22:19:05.415Z,6.50
2023-05-05T22:21:35.844Z,7.60
2023-05-05T22:24:08.059Z,6.10
2023-05-05T22:26:42.918Z,5.70
2023-05-05T22:29:13.592Z,5.80
2023-05-05T22:31:44.405Z,6.40
2023-05-05T22:34:18.829Z,6.40
2023-05-05T22:36:49.506Z,6.40
2023-05-05T22:39:23.834Z,7.40
2023-05-05T22:41:54.238Z,7.00
2023-05-05T22:44:27.351Z,7.50
2023-05-05T22:46:57.929Z,6.60
2023-05-05T22:49:28.745Z,7.40
2023-05-05T22:51:59.337Z,7.30
2023-05-05T22:54:29.876Z,7.50
2023-05-05T22:57:00.523Z,7.30
2023-05-05T22:59:31.139Z,6.30
2023-05-05T23:02:04.722Z,6.60
2023-05-05T23:04:35.313Z,6.10
2023-05-05T23:07:05.898Z,6.20
2023-05-05T23:09:36.323Z,6.70
2023-05-05T23:12:07.001Z,6.40
2023-05-05T23:14:37.519Z,6.70
2023-05-05T23:17:08.352Z,5.60
2023-05-05T23:19:38.969Z,6.30
2023-05-05T23:22:23.213Z,6.60
2023-05-05T23:24:55.963Z,6.80
2023-05-05T23:27:26.511Z,7.50
2023-05-05T23:29:57.120Z,7.10
2023-05-05T23:32:28.240Z,6.50
2023-05-05T23:34:58.936Z,6.40
2023-05-05T23:37:32.544Z,5.80
2023-05-05T23:40:02.999Z,6.20
2023-05-05T23:42:33.462Z,6.90
2023-05-05T23:45:04.208Z,6.80
2023-05-05T23:47:34.685Z,7.00
2023-05-05T23:50:05.405Z,6.10
2023-05-05T23:52:38.141Z,6.50
2023-05-05T23:55:10.558Z,6.90
2023-05-05T23:57:41.260Z,7.10
